Time;durP1;ratioP1;P1;durP2;ratioP2;P2;SDS_P1;SDS_P2;PMS_P1;PMS_P2;Temp;Humidity;BMP_temperature;BMP_pressure;BME280_temperature;BME280_humidity;BME280_pressure;Samples;Min_cycle;Max_cycle;Signal;HPM_P1;HPM_P2
2023/04/28 00:01:13;;;;;;;3.67;2.27;;;10.30;99.90;;;;;;5022858;28;20500;-65
2023/04/28 00:03:39;;;;;;;2.20;1.10;;;10.40;99.90;;;;;;5033159;28;20501;-65
2023/04/28 00:06:05;;;;;;;4.37;1.73;;;10.40;99.90;;;;;;5026733;28;20197;-65
2023/04/28 00:08:31;;;;;;;2.20;1.50;;;10.60;99.90;;;;;;5026624;28;20519;-65
2023/04/28 00:10:57;;;;;;;3.40;1.53;;;10.50;99.90;;;;;;5007814;28;20215;-66
2023/04/28 00:13:22;;;;;;;5.23;2.27;;;10.50;99.90;;;;;;5006427;28;20648;-66
2023/04/28 00:15:51;;;;;;;4.47;1.80;;;10.50;99.90;;;;;;5019559;28;20601;-65
2023/04/28 00:18:18;;;;;;;2.93;1.73;;;10.50;99.90;;;;;;5032905;28;20208;-66
2023/04/28 00:20:44;;;;;;;3.47;1.47;;;10.50;99.90;;;;;;5019550;28;20413;-65
2023/04/28 00:23:09;;;;;;;3.00;1.40;;;10.40;99.90;;;;;;5032783;28;20409;-66
2023/04/28 00:25:35;;;;;;;2.97;1.60;;;10.40;99.90;;;;;;5000445;28;20298;-66
2023/04/28 00:28:01;;;;;;;2.83;1.70;;;10.40;99.90;;;;;;5013166;28;20202;-65
2023/04/28 00:30:29;;;;;;;2.83;2.03;;;10.40;99.90;;;;;;5026551;28;20892;-66
2023/04/28 00:32:54;;;;;;;4.07;2.00;;;10.40;99.90;;;;;;5012678;28;20959;-66
2023/04/28 00:35:20;;;;;;;4.77;2.30;;;10.30;99.90;;;;;;5012567;28;20501;-65
2023/04/28 00:37:46;;;;;;;7.90;2.10;;;10.30;99.90;;;;;;5025644;28;20182;-66
2023/04/28 00:40:12;;;;;;;2.80;1.63;;;10.30;99.90;;;;;;5013610;28;20500;-66
2023/04/28 00:42:38;;;;;;;7.80;1.80;;;10.30;99.90;;;;;;5012615;28;20183;-65
2023/04/28 00:45:06;;;;;;;4.17;2.30;;;10.20;99.90;;;;;;5018060;28;20179;-65
2023/04/28 00:47:35;;;;;;;5.03;2.33;;;10.20;99.90;;;;;;5019974;28;20229;-65
2023/04/28 00:50:03;;;;;;;3.33;1.73;;;10.10;99.90;;;;;;5011870;28;20429;-66
2023/04/28 00:52:28;;;;;;;3.17;1.73;;;10.10;99.90;;;;;;5032367;28;20417;-65
2023/04/28 00:54:55;;;;;;;3.00;1.47;;;10.20;99.90;;;;;;5032813;28;20935;-66
2023/04/28 00:57:22;;;;;;;6.70;1.60;;;10.10;99.90;;;;;;5031071;28;20185;-65
2023/04/28 00:59:47;;;;;;;4.63;1.70;;;10.10;99.90;;;;;;5012378;28;20966;-66
2023/04/28 01:02:16;;;;;;;4.03;2.03;;;10.10;99.90;;;;;;5026751;28;20468;-66
2023/04/28 01:04:45;;;;;;;3.67;1.77;;;10.10;99.90;;;;;;5020832;28;20661;-65
2023/04/28 01:07:11;;;;;;;6.57;1.93;;;10.10;99.90;;;;;;5028982;28;20425;-66
2023/04/28 01:09:37;;;;;;;10.90;1.50;;;10.10;99.90;;;;;;5004485;28;20422;-66
2023/04/28 01:12:02;;;;;;;6.20;2.07;;;10.10;99.90;;;;;;5009385;28;20191;-66
2023/04/28 01:14:28;;;;;;;12.00;1.87;;;10.20;99.90;;;;;;5004792;28;20627;-66
2023/04/28 01:16:55;;;;;;;3.33;1.70;;;10.20;99.90;;;;;;5009234;28;20218;-66
2023/04/28 01:19:22;;;;;;;7.80;1.90;;;10.20;99.90;;;;;;5010993;28;20816;-66
2023/04/28 01:21:48;;;;;;;5.33;2.07;;;10.20;99.90;;;;;;4996181;28;20426;-66
2023/04/28 01:24:14;;;;;;;2.93;1.90;;;10.20;99.90;;;;;;5005061;28;20480;-66
2023/04/28 01:26:40;;;;;;;2.70;1.73;;;10.10;99.90;;;;;;5009949;28;20422;-66
2023/04/28 01:29:05;;;;;;;6.30;1.70;;;10.10;99.90;;;;;;5011685;28;20202;-66
2023/04/28 01:31:31;;;;;;;2.90;1.43;;;10.10;99.90;;;;;;5008973;28;20182;-66
2023/04/28 01:33:57;;;;;;;4.53;2.20;;;10.10;99.90;;;;;;4992036;28;20180;-66
2023/04/28 01:36:23;;;;;;;2.87;1.90;;;10.10;99.90;;;;;;4992216;28;20651;-66
2023/04/28 01:38:50;;;;;;;2.90;1.90;;;10.10;99.90;;;;;;5002920;28;20480;-65
2023/04/28 01:41:16;;;;;;;3.10;1.33;;;10.10;99.90;;;;;;4996262;28;20422;-66
2023/04/28 01:43:42;;;;;;;5.67;1.83;;;10.10;99.90;;;;;;4999598;28;20422;-65
2023/04/28 01:46:09;;;;;;;2.33;1.33;;;10.10;99.90;;;;;;5008859;28;20175;-65
2023/04/28 01:48:34;;;;;;;3.53;1.90;;;10.10;99.90;;;;;;5009970;28;20460;-66
2023/04/28 01:51:00;;;;;;;2.33;1.50;;;10.10;99.90;;;;;;5009010;28;20552;-65
2023/04/28 01:53:45;;;;;;;3.20;2.17;;;10.10;99.90;;;;;;4993228;28;20226;-65
2023/04/28 01:56:10;;;;;;;2.27;1.23;;;10.00;99.90;;;;;;4997597;28;20812;-65
2023/04/28 01:58:36;;;;;;;11.47;2.57;;;10.00;99.90;;;;;;4999014;28;20498;-65
2023/04/28 02:01:01;;;;;;;2.90;1.50;;;10.00;99.90;;;;;;4995978;28;20621;-66
2023/04/28 02:03:27;;;;;;;2.93;1.33;;;10.00;99.90;;;;;;5003092;28;20181;-66
2023/04/28 02:05:53;;;;;;;4.53;2.07;;;9.90;99.90;;;;;;5005400;28;20199;-66
2023/04/28 02:08:19;;;;;;;2.30;1.37;;;10.00;99.90;;;;;;4998709;28;20631;-65
2023/04/28 02:10:45;;;;;;;4.30;2.17;;;9.90;99.90;;;;;;5005672;28;20510;-66
2023/04/28 02:13:11;;;;;;;2.70;1.73;;;9.90;99.90;;;;;;5003553;28;20538;-66
2023/04/28 02:15:42;;;;;;;4.70;1.90;;;10.10;99.90;;;;;;5010674;28;20521;-65
2023/04/28 02:18:09;;;;;;;6.23;1.90;;;9.90;99.90;;;;;;5011118;28;20716;-66
2023/04/28 02:20:35;;;;;;;4.93;1.57;;;9.90;99.90;;;;;;5005890;28;20457;-65
2023/04/28 02:23:00;;;;;;;2.40;1.40;;;9.90;99.90;;;;;;5008146;28;20823;-65
2023/04/28 02:25:26;;;;;;;3.30;1.67;;;9.90;99.90;;;;;;5006175;28;20262;-66
2023/04/28 02:27:51;;;;;;;5.83;1.60;;;10.10;99.90;;;;;;5011352;28;20213;-66
2023/04/28 02:30:17;;;;;;;3.17;1.67;;;10.00;99.90;;;;;;5003597;28;20183;-65
2023/04/28 02:32:43;;;;;;;3.07;1.63;;;10.00;99.90;;;;;;4994481;28;20176;-65
2023/04/28 02:35:08;;;;;;;3.20;1.70;;;10.00;99.90;;;;;;5006382;28;20293;-66
2023/04/28 02:37:34;;;;;;;2.80;1.07;;;10.00;99.90;;;;;;5006366;28;20258;-66
2023/04/28 02:40:00;;;;;;;2.37;1.33;;;10.00;99.90;;;;;;5002236;28;20339;-66
2023/04/28 02:42:25;;;;;;;3.10;1.93;;;10.00;99.90;;;;;;5010592;28;20190;-66
2023/04/28 02:44:51;;;;;;;2.50;1.50;;;10.00;99.90;;;;;;5011668;28;20183;-66
2023/04/28 02:47:17;;;;;;;2.90;1.50;;;9.90;99.90;;;;;;5022880;28;20288;-65
2023/04/28 02:49:42;;;;;;;2.93;1.60;;;10.00;99.90;;;;;;5015686;28;20181;-66
2023/04/28 02:52:08;;;;;;;3.20;1.13;;;10.00;99.90;;;;;;5026154;28;20507;-66
2023/04/28 02:54:35;;;;;;;7.93;1.80;;;10.00;99.90;;;;;;4992298;28;20191;-66
2023/04/28 02:57:03;;;;;;;2.43;1.53;;;10.10;99.90;;;;;;4994066;28;20671;-65
2023/04/28 02:59:29;;;;;;;3.10;1.80;;;10.20;99.90;;;;;;5000887;28;20481;-66
2023/04/28 03:01:55;;;;;;;2.37;1.13;;;10.10;99.90;;;;;;5016135;28;20417;-66
2023/04/28 03:04:21;;;;;;;2.47;1.63;;;10.10;99.90;;;;;;5013985;28;20428;-65
2023/04/28 03:06:47;;;;;;;4.90;2.40;;;10.10;99.90;;;;;;5002209;28;20195;-66
2023/04/28 03:09:13;;;;;;;6.43;2.17;;;10.20;99.90;;;;;;5005717;28;20576;-66
2023/04/28 03:11:40;;;;;;;3.13;2.00;;;10.10;99.90;;;;;;5014099;28;20175;-65
2023/04/28 03:14:05;;;;;;;5.17;1.50;;;10.10;99.90;;;;;;5006726;28;20933;-66
2023/04/28 03:16:32;;;;;;;2.13;1.37;;;10.20;99.90;;;;;;5014201;28;20414;-65
2023/04/28 03:18:57;;;;;;;6.80;2.23;;;10.20;99.90;;;;;;5007503;28;20631;-66
2023/04/28 03:21:25;;;;;;;4.23;2.23;;;10.20;99.90;;;;;;4994625;28;20453;-66
2023/04/28 03:23:51;;;;;;;5.50;2.63;;;10.50;99.90;;;;;;4993911;28;20187;-66
2023/04/28 03:26:16;;;;;;;5.00;1.73;;;10.40;99.90;;;;;;4994672;28;20427;-66
2023/04/28 03:28:42;;;;;;;3.97;1.87;;;10.50;99.90;;;;;;4994284;28;20683;-67
2023/04/28 03:31:07;;;;;;;4.50;2.53;;;10.60;99.90;;;;;;4994344;28;20184;-67
2023/04/28 03:33:33;;;;;;;7.90;2.53;;;10.70;99.90;;;;;;4999547;28;20280;-67
2023/04/28 03:35:58;;;;;;;2.90;1.60;;;10.80;99.90;;;;;;5013934;28;20532;-67
2023/04/28 03:38:24;;;;;;;4.60;2.97;;;10.80;99.90;;;;;;5004859;28;20230;-67
2023/04/28 03:40:50;;;;;;;5.00;2.40;;;10.80;99.90;;;;;;5002149;28;20176;-67
2023/04/28 03:43:16;;;;;;;2.70;1.80;;;10.90;99.90;;;;;;4997955;28;20271;-67
2023/04/28 03:45:41;;;;;;;3.47;1.50;;;11.00;99.90;;;;;;5025595;28;20173;-67
2023/04/28 03:48:07;;;;;;;5.97;2.80;;;10.90;99.90;;;;;;5017265;28;20180;-67
2023/04/28 03:50:33;;;;;;;6.53;2.30;;;11.10;99.90;;;;;;5005939;28;20191;-67
2023/04/28 03:52:58;;;;;;;3.87;2.10;;;11.00;99.90;;;;;;5013250;28;20184;-67
2023/04/28 03:55:24;;;;;;;7.57;2.33;;;11.00;99.90;;;;;;4994414;28;20194;-65
2023/04/28 03:57:51;;;;;;;4.17;1.80;;;11.00;99.90;;;;;;5013103;28;20191;-66
2023/04/28 04:00:17;;;;;;;4.70;1.70;;;10.90;99.90;;;;;;5010117;28;20450;-65
2023/04/28 04:02:42;;;;;;;2.73;1.57;;;11.00;99.90;;;;;;5008450;28;21237;-66
2023/04/28 04:05:08;;;;;;;3.93;1.93;;;11.00;99.90;;;;;;4993740;28;20435;-66
2023/04/28 04:07:33;;;;;;;4.10;1.97;;;11.00;99.90;;;;;;5001056;28;20183;-66
2023/04/28 04:09:59;;;;;;;3.30;2.03;;;11.00;99.90;;;;;;5011374;28;20183;-66
2023/04/28 04:12:25;;;;;;;5.20;2.60;;;11.00;99.90;;;;;;5010103;28;20310;-66
2023/04/28 04:14:51;;;;;;;2.87;1.37;;;11.00;99.90;;;;;;5007998;28;20187;-65
2023/04/28 04:17:16;;;;;;;4.00;1.90;;;11.00;99.90;;;;;;5009479;28;20194;-68
2023/04/28 04:19:42;;;;;;;7.97;2.47;;;11.00;99.90;;;;;;5012707;28;20648;-68
2023/04/28 04:22:07;;;;;;;11.03;2.07;;;11.10;99.90;;;;;;4996613;28;20190;-68
2023/04/28 04:24:33;;;;;;;3.27;1.73;;;11.10;99.90;;;;;;5013527;28;20175;-68
2023/04/28 04:26:59;;;;;;;3.37;1.70;;;11.10;99.90;;;;;;5004498;28;20211;-68
2023/04/28 04:29:24;;;;;;;4.80;1.67;;;11.10;99.90;;;;;;5001646;28;20179;-67
2023/04/28 04:31:50;;;;;;;5.50;2.17;;;11.00;99.90;;;;;;4996044;28;20563;-67
2023/04/28 04:34:16;;;;;;;4.50;1.57;;;10.90;99.90;;;;;;5010766;28;20550;-67
2023/04/28 04:36:41;;;;;;;3.97;2.17;;;10.90;99.90;;;;;;5000434;28;20702;-67
2023/04/28 04:39:07;;;;;;;3.87;2.00;;;10.90;99.90;;;;;;5002660;28;20294;-67
2023/04/28 04:41:33;;;;;;;7.23;1.87;;;10.80;99.90;;;;;;5017685;28;20181;-67
2023/04/28 04:43:58;;;;;;;4.17;1.87;;;10.70;99.90;;;;;;5009651;28;20183;-67
2023/04/28 04:46:24;;;;;;;6.00;2.23;;;10.70;99.90;;;;;;5009348;28;20218;-67
2023/04/28 04:48:50;;;;;;;8.40;3.10;;;10.70;99.90;;;;;;4989338;28;20541;-67
2023/04/28 04:51:15;;;;;;;5.53;1.90;;;10.60;99.90;;;;;;5012517;28;20263;-67
2023/04/28 04:53:41;;;;;;;7.93;3.10;;;10.60;99.90;;;;;;5000637;28;20267;-67
2023/04/28 04:56:06;;;;;;;4.77;2.53;;;10.50;99.90;;;;;;4992996;28;20668;-67
2023/04/28 04:58:32;;;;;;;5.00;3.03;;;10.50;99.90;;;;;;4992920;28;20175;-67
2023/04/28 05:00:58;;;;;;;4.23;2.30;;;10.50;99.90;;;;;;5001700;28;20802;-67
2023/04/28 05:03:23;;;;;;;18.23;2.60;;;10.50;99.90;;;;;;5011593;28;20191;-67
2023/04/28 05:05:49;;;;;;;3.57;2.40;;;10.50;99.90;;;;;;5006782;28;20386;-67
2023/04/28 05:08:14;;;;;;;3.87;2.53;;;10.50;99.90;;;;;;4998789;28;20218;-67
2023/04/28 05:10:40;;;;;;;5.67;2.83;;;10.50;99.90;;;;;;5007425;28;20739;-67
2023/04/28 05:13:06;;;;;;;4.77;2.33;;;10.50;99.90;;;;;;5003406;28;20192;-67
2023/04/28 05:15:31;;;;;;;4.67;2.97;;;10.50;99.90;;;;;;4998836;28;20179;-67
2023/04/28 05:17:57;;;;;;;4.77;2.27;;;10.50;99.90;;;;;;5009943;28;20190;-67
2023/04/28 05:20:23;;;;;;;4.17;2.27;;;10.50;99.90;;;;;;5006359;28;20275;-67
2023/04/28 05:22:48;;;;;;;5.80;3.10;;;10.40;99.90;;;;;;5005959;28;20210;-67
2023/04/28 05:25:14;;;;;;;5.17;2.50;;;10.40;99.90;;;;;;5011442;28;20233;-67
2023/04/28 05:27:40;;;;;;;4.20;2.10;;;10.40;99.90;;;;;;5000781;28;20178;-67
2023/04/28 05:30:09;;;;;;;6.67;2.13;;;10.40;99.90;;;;;;4987881;28;20184;-67
2023/04/28 05:32:36;;;;;;;5.53;2.97;;;10.40;99.90;;;;;;5002975;28;20361;-67
2023/04/28 05:35:02;;;;;;;5.83;2.40;;;10.40;99.90;;;;;;4998328;28;20426;-67
2023/04/28 05:37:28;;;;;;;7.83;3.20;;;10.50;99.90;;;;;;5017164;28;20507;-67
2023/04/28 05:39:54;;;;;;;8.20;3.03;;;10.50;99.90;;;;;;5009279;28;20513;-67
2023/04/28 05:42:20;;;;;;;3.60;2.53;;;10.50;99.90;;;;;;4991878;28;20192;-67
2023/04/28 05:44:45;;;;;;;6.10;2.83;;;10.50;99.90;;;;;;5008035;28;20428;-67
2023/04/28 05:47:11;;;;;;;4.47;2.03;;;10.50;99.90;;;;;;5025616;28;20183;-67
2023/04/28 05:49:37;;;;;;;3.57;2.20;;;10.50;99.90;;;;;;5010501;28;20278;-67
2023/04/28 05:52:03;;;;;;;6.60;2.40;;;10.50;99.90;;;;;;5017761;28;20528;-67
2023/04/28 05:54:29;;;;;;;5.10;3.10;;;10.60;99.90;;;;;;4992210;28;20235;-67
2023/04/28 05:56:56;;;;;;;3.27;2.33;;;10.70;99.90;;;;;;4991789;28;20522;-67
2023/04/28 05:59:22;;;;;;;5.30;2.17;;;10.60;99.90;;;;;;4991449;28;20262;-67
2023/04/28 06:01:49;;;;;;;7.43;3.30;;;10.60;99.90;;;;;;5001849;28;20456;-67
2023/04/28 06:04:15;;;;;;;5.33;2.97;;;10.60;99.90;;;;;;4992850;28;20179;-67
2023/04/28 06:06:41;;;;;;;4.53;2.40;;;10.70;99.90;;;;;;4991675;28;20439;-67
2023/04/28 06:09:07;;;;;;;5.17;2.20;;;10.70;99.90;;;;;;5004564;28;20191;-67
2023/04/28 06:11:33;;;;;;;2.83;1.90;;;10.70;99.90;;;;;;4999620;28;20215;-67
2023/04/28 06:13:59;;;;;;;6.00;2.90;;;10.80;99.90;;;;;;4995836;28;20462;-67
2023/04/28 06:16:24;;;;;;;4.70;2.90;;;10.90;99.90;;;;;;5000437;28;20195;-67
2023/04/28 06:18:50;;;;;;;4.20;2.90;;;10.90;99.90;;;;;;5008312;28;20202;-67
2023/04/28 06:21:16;;;;;;;5.87;2.90;;;10.90;99.90;;;;;;5000448;28;20667;-67
2023/04/28 06:23:41;;;;;;;3.30;2.13;;;10.90;99.90;;;;;;4995577;28;20206;-67
2023/04/28 06:26:08;;;;;;;4.17;2.17;;;11.00;99.90;;;;;;5000405;28;20184;-67
2023/04/28 06:28:34;;;;;;;5.17;2.40;;;11.00;99.90;;;;;;5001520;28;20633;-67
2023/04/28 06:31:00;;;;;;;4.50;2.20;;;11.00;99.90;;;;;;5012197;28;20418;-67
2023/04/28 06:33:25;;;;;;;2.60;1.73;;;11.00;99.90;;;;;;5011648;28;20495;-67
2023/04/28 06:35:51;;;;;;;5.60;2.73;;;11.10;99.90;;;;;;5010101;28;20524;-67
2023/04/28 06:38:17;;;;;;;3.27;2.23;;;11.10;99.90;;;;;;5013410;28;20266;-67
2023/04/28 06:40:44;;;;;;;3.83;2.30;;;11.10;99.90;;;;;;5014683;28;20900;-67
2023/04/28 06:43:10;;;;;;;3.30;1.97;;;11.20;99.90;;;;;;5014173;28;20186;-67
2023/04/28 06:45:36;;;;;;;3.43;2.47;;;11.20;99.90;;;;;;5021394;28;20417;-67
2023/04/28 06:48:02;;;;;;;2.87;1.70;;;11.20;99.90;;;;;;5027923;28;20669;-67
2023/04/28 06:50:28;;;;;;;4.10;2.23;;;11.20;99.90;;;;;;5012911;28;20434;-67
2023/04/28 06:52:53;;;;;;;8.67;2.50;;;11.20;99.90;;;;;;5007961;28;20672;-67
2023/04/28 06:55:19;;;;;;;4.97;2.63;;;11.20;99.90;;;;;;5008994;28;20229;-67
2023/04/28 06:57:45;;;;;;;6.00;2.00;;;11.20;99.90;;;;;;5009271;28;20708;-67
2023/04/28 07:00:11;;;;;;;8.70;2.83;;;11.20;99.90;;;;;;5006280;28;20207;-67
2023/04/28 07:02:37;;;;;;;4.80;2.93;;;11.20;99.90;;;;;;4995729;28;20919;-67
2023/04/28 07:05:03;;;;;;;5.10;2.80;;;11.30;99.90;;;;;;4994528;28;20479;-67
2023/04/28 07:07:29;;;;;;;5.53;2.03;;;11.40;99.90;;;;;;4998691;28;20262;-67
2023/04/28 07:09:55;;;;;;;8.00;2.87;;;11.40;99.90;;;;;;5004330;28;20505;-67
2023/04/28 07:12:21;;;;;;;5.40;2.30;;;11.40;99.90;;;;;;5001713;28;20686;-67
2023/04/28 07:14:47;;;;;;;5.33;2.50;;;11.40;99.90;;;;;;5005589;28;20267;-67
2023/04/28 07:17:12;;;;;;;2.50;1.90;;;11.50;99.90;;;;;;4992937;28;20525;-67
2023/04/28 07:19:38;;;;;;;4.70;2.67;;;11.50;99.90;;;;;;5008428;28;20199;-67
2023/04/28 07:22:04;;;;;;;5.17;2.60;;;11.50;99.90;;;;;;5007340;28;20183;-67
2023/04/28 07:24:30;;;;;;;11.70;2.73;;;11.60;99.90;;;;;;5008940;28;20263;-67
2023/04/28 07:26:56;;;;;;;5.07;2.70;;;11.60;99.90;;;;;;5009513;28;20179;-67
2023/04/28 07:29:22;;;;;;;2.83;2.03;;;11.60;99.90;;;;;;5005929;28;20271;-67
2023/04/28 07:31:48;;;;;;;3.80;2.00;;;11.60;99.90;;;;;;4995448;28;20426;-67
2023/04/28 07:34:14;;;;;;;2.83;1.77;;;11.60;99.90;;;;;;5005368;28;20476;-67
2023/04/28 07:36:40;;;;;;;2.80;2.00;;;11.60;99.90;;;;;;5009017;28;20222;-67
2023/04/28 07:39:06;;;;;;;3.93;2.60;;;11.60;99.90;;;;;;5007094;28;20988;-67
2023/04/28 07:41:36;;;;;;;4.43;2.13;;;11.60;99.90;;;;;;5013245;28;20422;-67
2023/04/28 07:44:03;;;;;;;7.20;2.40;;;11.50;99.90;;;;;;5013620;28;20183;-66
2023/04/28 07:46:29;;;;;;;5.13;2.73;;;11.50;99.90;;;;;;5023567;28;20448;-66
2023/04/28 07:48:55;;;;;;;3.50;2.00;;;11.50;99.90;;;;;;5017244;28;20446;-66
2023/04/28 07:51:21;;;;;;;4.00;2.87;;;11.40;99.90;;;;;;5026635;28;20501;-67
2023/04/28 07:53:46;;;;;;;7.40;2.97;;;11.40;99.90;;;;;;5018620;28;20520;-66
2023/04/28 07:56:12;;;;;;;7.10;3.00;;;11.40;99.90;;;;;;5000453;28;20640;-67
2023/04/28 07:58:38;;;;;;;4.03;2.57;;;11.40;99.90;;;;;;5001979;28;20183;-66
2023/04/28 08:01:03;;;;;;;7.33;3.03;;;11.40;99.90;;;;;;5004632;28;20209;-66
2023/04/28 08:03:29;;;;;;;5.63;2.60;;;11.40;99.90;;;;;;5001137;28;20263;-67
2023/04/28 08:05:55;;;;;;;4.90;3.00;;;11.40;99.90;;;;;;4997481;28;20199;-67
2023/04/28 08:08:20;;;;;;;8.17;3.10;;;11.50;99.90;;;;;;5020067;28;20191;-67
2023/04/28 08:10:47;;;;;;;5.80;3.33;;;11.50;99.90;;;;;;5001297;28;20199;-67
2023/04/28 08:13:15;;;;;;;7.53;3.00;;;11.50;99.90;;;;;;5001393;28;20226;-67
2023/04/28 08:15:41;;;;;;;5.10;3.20;;;11.50;99.90;;;;;;4999107;28;20418;-66
2023/04/28 08:18:07;;;;;;;7.60;3.30;;;11.50;99.90;;;;;;5001303;28;20454;-67
2023/04/28 08:20:32;;;;;;;4.23;3.50;;;11.60;99.90;;;;;;4997844;28;20202;-67
2023/04/28 08:22:58;;;;;;;4.80;2.97;;;11.50;99.90;;;;;;5012489;28;20429;-67
2023/04/28 08:25:24;;;;;;;8.07;4.10;;;11.60;99.90;;;;;;4999584;28;20174;-67
2023/04/28 08:27:50;;;;;;;5.40;3.43;;;11.60;99.90;;;;;;5012815;28;20198;-67
2023/04/28 08:30:16;;;;;;;5.60;3.10;;;11.70;99.90;;;;;;5012748;28;20886;-67
2023/04/28 08:32:41;;;;;;;4.57;2.83;;;11.70;99.90;;;;;;5012180;28;20645;-67
2023/04/28 08:35:07;;;;;;;5.10;3.47;;;11.70;99.90;;;;;;5011984;28;20187;-68
2023/04/28 08:37:33;;;;;;;7.60;3.10;;;11.80;99.90;;;;;;5012730;28;20190;-67
2023/04/28 08:40:01;;;;;;;4.40;2.57;;;11.80;99.90;;;;;;4999678;28;20864;-67
2023/04/28 08:42:32;;;;;;;24.03;3.70;;;11.90;99.90;;;;;;5000307;28;20541;-67
2023/04/28 08:44:58;;;;;;;4.93;3.10;;;11.90;99.90;;;;;;5010742;28;20437;-68
2023/04/28 08:47:37;;;;;;;8.90;3.50;;;12.00;99.90;;;;;;5026916;28;20465;-67
2023/04/28 08:50:07;;;;;;;3.53;2.53;;;12.10;99.90;;;;;;5003385;28;20430;-67
2023/04/28 08:52:33;;;;;;;5.60;3.03;;;12.10;99.90;;;;;;5019247;28;20884;-67
2023/04/28 08:55:01;;;;;;;3.60;2.47;;;12.20;99.90;;;;;;5000634;28;21203;-67
2023/04/28 08:57:33;;;;;;;6.83;3.47;;;12.20;99.90;;;;;;4999290;28;20510;-67
2023/04/28 08:59:59;;;;;;;5.13;2.90;;;12.30;99.90;;;;;;5012350;28;20461;-67
2023/04/28 09:02:25;;;;;;;3.87;2.43;;;12.30;99.90;;;;;;5011434;28;20510;-66
2023/04/28 09:04:51;;;;;;;4.03;2.50;;;12.30;99.90;;;;;;5001614;28;20517;-66
2023/04/28 09:07:16;;;;;;;4.77;2.63;;;12.30;99.90;;;;;;4995710;28;20230;-66
2023/04/28 09:09:44;;;;;;;6.63;2.60;;;12.30;99.90;;;;;;5000535;28;20191;-66
2023/04/28 09:12:10;;;;;;;5.73;2.40;;;12.30;99.90;;;;;;5005400;28;20505;-66
2023/04/28 09:14:37;;;;;;;6.83;3.13;;;12.40;99.90;;;;;;4992329;28;20431;-65
2023/04/28 09:17:12;;;;;;;4.27;2.67;;;12.40;99.90;;;;;;5009327;28;20975;-66
2023/04/28 09:19:38;;;;;;;3.50;2.80;;;12.50;99.90;;;;;;5011437;28;20493;-66
2023/04/28 09:22:05;;;;;;;4.60;2.33;;;12.60;99.90;;;;;;5007199;28;20430;-66
2023/04/28 09:24:39;;;;;;;5.47;2.80;;;12.70;99.90;;;;;;5002649;28;20445;-66
2023/04/28 09:27:09;;;;;;;4.63;2.20;;;12.90;99.90;;;;;;4993840;28;20957;-66
2023/04/28 09:29:35;;;;;;;5.57;3.20;;;13.10;99.90;;;;;;5004816;28;20422;-66
2023/04/28 09:32:33;;;;;;;5.10;2.60;;;13.00;99.90;;;;;;5011609;28;20453;-66
2023/04/28 09:35:00;;;;;;;4.67;2.50;;;13.10;99.90;;;;;;4960943;28;20445;-66
2023/04/28 09:37:29;;;;;;;6.00;2.53;;;13.10;99.90;;;;;;4992133;28;20426;-66
2023/04/28 09:39:56;;;;;;;6.83;3.00;;;13.20;99.90;;;;;;4991466;28;20481;-66
2023/04/28 09:42:32;;;;;;;7.23;2.13;;;13.30;99.90;;;;;;5002767;28;20548;-66
2023/04/28 09:44:58;;;;;;;4.90;2.47;;;13.40;99.90;;;;;;5010246;28;20429;-66
2023/04/28 09:47:24;;;;;;;3.40;2.10;;;13.40;99.90;;;;;;5026450;28;20414;-66
2023/04/28 09:49:58;;;;;;;3.60;2.23;;;13.50;99.90;;;;;;5001308;28;20179;-66
2023/04/28 09:52:24;;;;;;;5.40;2.37;;;13.60;99.90;;;;;;5023249;28;20489;-66
2023/04/28 09:54:52;;;;;;;6.40;1.60;;;13.70;99.90;;;;;;4999589;28;20422;-66
2023/04/28 09:57:18;;;;;;;3.50;1.30;;;13.90;99.90;;;;;;5011141;28;20497;-65
2023/04/28 09:59:51;;;;;;;1.60;0.97;;;14.10;99.90;;;;;;5011290;28;20465;-66
2023/04/28 10:02:19;;;;;;;2.37;0.80;;;14.50;99.90;;;;;;4996849;28;20414;-66
2023/04/28 10:04:46;;;;;;;1.97;0.87;;;14.80;99.90;;;;;;4999804;28;20421;-65
2023/04/28 10:07:13;;;;;;;1.60;0.93;;;15.00;99.90;;;;;;4997656;28;20501;-66
2023/04/28 10:09:43;;;;;;;2.30;0.90;;;14.90;99.90;;;;;;5003061;28;20485;-66
2023/04/28 10:12:09;;;;;;;2.97;0.83;;;15.00;99.90;;;;;;5007273;28;20429;-66
2023/04/28 10:14:36;;;;;;;2.37;0.80;;;15.10;99.90;;;;;;5001955;28;20574;-66
2023/04/28 10:17:05;;;;;;;1.70;1.00;;;15.30;99.90;;;;;;4998057;28;20454;-66
2023/04/28 10:19:30;;;;;;;1.57;0.90;;;15.50;99.90;;;;;;5010869;28;20557;-66
2023/04/28 10:22:08;;;;;;;1.90;0.60;;;15.50;99.90;;;;;;4993439;28;20546;-67
2023/04/28 10:25:03;;;;;;;1.90;0.70;;;15.50;99.90;;;;;;4991098;28;20183;-66
2023/04/28 10:27:30;;;;;;;1.93;0.60;;;15.60;99.90;;;;;;5001407;28;20414;-66
2023/04/28 10:30:28;;;;;;;2.17;0.80;;;15.80;99.90;;;;;;4994513;28;20419;-66
2023/04/28 10:33:12;;;;;;;1.50;0.80;;;16.00;99.90;;;;;;4957732;28;20438;-66
2023/04/28 10:35:39;;;;;;;1.63;0.73;;;16.20;99.90;;;;;;4990997;28;20423;-67
2023/04/28 10:38:22;;;;;;;1.70;0.77;;;16.30;99.90;;;;;;4978523;28;20472;-66
2023/04/28 10:40:53;;;;;;;1.30;0.60;;;16.40;99.90;;;;;;5010427;28;20596;-67
2023/04/28 10:43:24;;;;;;;1.33;0.70;;;16.30;99.90;;;;;;5006298;28;20529;-67
2023/04/28 10:45:56;;;;;;;1.43;0.60;;;16.50;99.90;;;;;;5017540;28;20417;-67
2023/04/28 10:48:42;;;;;;;1.30;0.50;;;16.70;99.90;;;;;;5010626;28;20419;-67
2023/04/28 10:51:13;;;;;;;1.20;0.40;;;16.60;99.90;;;;;;5005947;28;20929;-67
2023/04/28 10:53:44;;;;;;;1.53;0.60;;;16.50;99.90;;;;;;5005276;28;20942;-67
2023/04/28 10:56:18;;;;;;;2.50;0.70;;;16.50;99.90;;;;;;5009671;28;20444;-67
2023/04/28 10:58:59;;;;;;;2.53;0.93;;;16.50;99.90;;;;;;4998373;28;21293;-67
2023/04/28 11:01:33;;;;;;;4.90;0.70;;;16.30;99.90;;;;;;4996673;28;20447;-67
2023/04/28 11:04:12;;;;;;;1.57;0.70;;;16.20;99.90;;;;;;4992937;28;20518;-67
2023/04/28 11:06:39;;;;;;;1.40;0.50;;;16.20;99.90;;;;;;4999971;28;20438;-66
2023/04/28 11:09:11;;;;;;;1.30;0.60;;;16.10;99.90;;;;;;4999426;28;20462;-67
2023/04/28 11:11:37;;;;;;;1.30;0.60;;;16.00;99.90;;;;;;5001646;28;20434;-66
2023/04/28 11:14:19;;;;;;;1.20;0.50;;;15.90;99.90;;;;;;4991917;28;20426;-66
2023/04/28 11:16:50;;;;;;;1.53;0.60;;;15.80;99.90;;;;;;5004892;28;20429;-66
2023/04/28 11:19:23;;;;;;;1.63;0.63;;;15.60;99.90;;;;;;4993967;28;20461;-67
2023/04/28 11:21:50;;;;;;;1.30;0.60;;;15.60;99.90;;;;;;5009862;28;21008;-66
2023/04/28 11:24:16;;;;;;;1.40;0.60;;;15.60;99.90;;;;;;5013554;28;20512;-66
2023/04/28 11:26:42;;;;;;;1.40;0.60;;;16.00;99.90;;;;;;5011103;28;20538;-67
2023/04/28 11:29:08;;;;;;;1.40;0.60;;;16.20;99.90;;;;;;4994308;28;20188;-66
2023/04/28 11:31:34;;;;;;;1.40;0.63;;;16.40;99.90;;;;;;4994150;28;20815;-67
2023/04/28 11:34:04;;;;;;;1.40;0.60;;;16.50;99.90;;;;;;4993583;28;20481;-66
2023/04/28 11:36:32;;;;;;;1.43;0.60;;;16.60;99.90;;;;;;4997168;28;20183;-66
2023/04/28 11:38:58;;;;;;;1.20;0.50;;;16.50;99.90;;;;;;5011503;28;20436;-66
2023/04/28 11:41:25;;;;;;;1.40;0.50;;;16.50;99.90;;;;;;5010063;28;20890;-66
2023/04/28 11:43:51;;;;;;;1.70;0.50;;;16.50;99.90;;;;;;5003742;28;20437;-66
2023/04/28 11:46:22;;;;;;;1.30;0.60;;;16.50;99.90;;;;;;5023089;28;20419;-67
2023/04/28 11:48:58;;;;;;;1.20;0.40;;;16.50;99.90;;;;;;5018121;28;20896;-67
2023/04/28 11:51:35;;;;;;;1.20;0.50;;;16.60;99.90;;;;;;5022037;28;20417;-66
2023/04/28 11:54:02;;;;;;;1.30;0.60;;;16.60;99.90;;;;;;5012249;28;20449;-67
2023/04/28 11:56:28;;;;;;;1.20;0.50;;;16.60;99.90;;;;;;5013848;28;20906;-66
2023/04/28 11:59:04;;;;;;;7.73;0.53;;;16.60;99.90;;;;;;5013071;28;20492;-67
2023/04/28 12:01:31;;;;;;;1.67;0.60;;;16.50;99.90;;;;;;5015761;28;20487;-66
2023/04/28 12:03:57;;;;;;;1.40;0.67;;;16.30;99.90;;;;;;5009986;28;20544;-66
2023/04/28 12:06:23;;;;;;;1.20;0.50;;;16.20;99.90;;;;;;5001415;28;20933;-67
2023/04/28 12:08:50;;;;;;;1.40;0.70;;;16.20;99.90;;;;;;5010842;28;20187;-66
2023/04/28 12:11:16;;;;;;;1.20;0.50;;;16.10;99.90;;;;;;5013080;28;20198;-66
2023/04/28 12:13:43;;;;;;;2.13;0.77;;;16.10;99.90;;;;;;5007496;28;20518;-67
2023/04/28 12:16:08;;;;;;;1.27;0.57;;;16.10;99.90;;;;;;5001269;28;20442;-66
2023/04/28 12:18:35;;;;;;;1.40;0.50;;;16.10;99.90;;;;;;5007263;28;20453;-66
2023/04/28 12:21:01;;;;;;;1.53;0.77;;;16.40;99.90;;;;;;5006996;28;20203;-66
2023/04/28 12:23:35;;;;;;;1.20;0.40;;;16.60;99.90;;;;;;5005390;28;20496;-67
2023/04/28 12:26:01;;;;;;;1.30;0.50;;;16.80;99.90;;;;;;5003261;28;20431;-66
2023/04/28 12:28:40;;;;;;;1.33;0.50;;;17.00;99.90;;;;;;4989806;28;20685;-67
2023/04/28 12:31:07;;;;;;;2.33;0.80;;;17.10;99.90;;;;;;5003931;28;20516;-66
2023/04/28 12:33:36;;;;;;;1.63;0.80;;;17.20;99.90;;;;;;4985670;28;20419;-66
2023/04/28 12:36:03;;;;;;;1.30;0.50;;;17.20;99.90;;;;;;4993065;28;20417;-66
2023/04/28 12:38:31;;;;;;;4.07;0.53;;;17.20;99.90;;;;;;5006932;28;20483;-67
2023/04/28 12:40:57;;;;;;;1.40;0.50;;;17.10;99.90;;;;;;4993779;28;20470;-67
2023/04/28 12:43:24;;;;;;;1.30;0.50;;;17.00;99.90;;;;;;4998696;28;20414;-67
2023/04/28 12:45:51;;;;;;;1.87;0.90;;;17.10;99.90;;;;;;5017469;28;20907;-67
2023/04/28 12:48:18;;;;;;;1.30;0.50;;;17.00;99.90;;;;;;5002423;28;20415;-66